Time;durP1;ratioP1;P1;durP2;ratioP2;P2;SDS_P1;SDS_P2;PMS_P1;PMS_P2;Temp;Humidity;BMP_temperature;BMP_pressure;BME280_temperature;BME280_humidity;BME280_pressure;Samples;Min_cycle;Max_cycle;Signal;HPM_P1;HPM_P2
2019/04/02 00:03:50;;;;;;;4.9;4.4;;;;;;;24.15;28.05859;999.0028;;;;
2019/04/02 00:06:21;;;;;;;4.6;4.2;;;;;;;24.15;28.04688;998.9439;;;;
2019/04/02 00:08:51;;;;;;;4.5;4.1;;;;;;;24.15;28.04688;998.9343;;;;
2019/04/02 00:11:21;;;;;;;5;4.5;;;;;;;24.14;28.04688;998.8867;;;;
2019/04/02 00:13:52;;;;;;;4.8;4.4;;;;;;;24.14;28.03418;998.9375;;;;
2019/04/02 00:16:23;;;;;;;4.7;4.2;;;;;;;24.13;28.05762;998.9119;;;;
2019/04/02 00:18:54;;;;;;;4.8;4.4;;;;;;;24.12;28.04492;998.9133;;;;
2019/04/02 00:21:24;;;;;;;4.7;4.3;;;;;;;24.11;28.05664;998.9207;;;;
2019/04/02 00:23:54;;;;;;;4.6;4.2;;;;;;;24.11;28.04492;998.9344;;;;
2019/04/02 00:26:24;;;;;;;5;4.5;;;;;;;24.09;28.05566;998.8694;;;;
2019/04/02 00:28:56;;;;;;;4.5;4.1;;;;;;;24.1;28.04395;998.8772;;;;
2019/04/02 00:31:26;;;;;;;5.2;4.7;;;;;;;24.1;28.04395;998.7675;;;;
2019/04/02 00:34:00;;;;;;;4.7;4.3;;;;;;;24.11;28.04492;998.7561;;;;
2019/04/02 00:36:28;;;;;;;4.9;4.5;;;;;;;24.1;28.04395;998.7305;;;;
2019/04/02 00:38:58;;;;;;;5.3;4.8;;;;;;;24.1;28.04395;998.7086;;;;
2019/04/02 00:41:28;;;;;;;4.6;4.2;;;;;;;24.09;28.05566;998.7008;;;;
2019/04/02 00:44:00;;;;;;;4.6;4.2;;;;;;;24.09;28.05566;998.683;;;;
2019/04/02 00:46:30;;;;;;;5;4.5;;;;;;;24.09;28.05566;998.6515;;;;
2019/04/02 00:49:01;;;;;;;5;4.5;;;;;;;24.07;28.07813;998.6588;;;;
2019/04/02 00:51:32;;;;;;;5.1;4.6;;;;;;;24.08;28.06641;998.6121;;;;
2019/04/02 00:54:04;;;;;;;5.1;4.6;;;;;;;24.07;28.07715;998.5961;;;;
2019/04/02 00:56:33;;;;;;;5.3;4.8;;;;;;;24.07;28.06543;998.5979;;;;
2019/04/02 00:59:04;;;;;;;5.2;4.7;;;;;;;24.06;28.07715;998.5623;;;;
2019/04/02 01:01:34;;;;;;;5.3;4.8;;;;;;;24.04;28.06348;998.5518;;;;
2019/04/02 01:04:06;;;;;;;5;4.5;;;;;;;24.04;28.06348;998.4658;;;;
2019/04/02 01:06:36;;;;;;;5.1;4.7;;;;;;;24.04;28.07617;998.5165;;;;
2019/04/02 01:09:07;;;;;;;4.9;4.4;;;;;;;24.03;28.07617;998.485;;;;
2019/04/02 01:11:37;;;;;;;4.9;4.5;;;;;;;24.04;28.07617;998.4069;;;;
2019/04/02 01:14:10;;;;;;;5.2;4.7;;;;;;;24.04;28.06348;998.4188;;;;
2019/04/02 01:16:39;;;;;;;5;4.6;;;;;;;24.04;28.07617;998.2972;;;;
2019/04/02 01:19:09;;;;;;;5.6;4.8;;;;;;;24.02;28.09863;998.3279;;;;
2019/04/02 01:21:43;;;;;;;5;4.6;;;;;;;24.02;28.09863;998.3416;;;;
2019/04/02 01:24:11;;;;;;;5;4.6;;;;;;;24.02;28.10938;998.3571;;;;
2019/04/02 01:26:42;;;;;;;4.9;4.4;;;;;;;24.02;28.09766;998.3571;;;;
2019/04/02 01:29:13;;;;;;;4.8;4.4;;;;;;;24.01;28.10938;998.3627;;;;
2019/04/02 01:31:44;;;;;;;4.9;4.5;;;;;;;24.01;28.10938;998.2392;;;;
2019/04/02 01:34:14;;;;;;;5.4;4.9;;;;;;;24.01;28.09766;998.257;;;;
2019/04/02 01:36:45;;;;;;;5;4.6;;;;;;;24.01;28.09766;998.2489;;;;
2019/04/02 01:39:15;;;;;;;5.2;4.7;;;;;;;24;28.10938;998.2644;;;;
2019/04/02 01:41:46;;;;;;;5.2;4.7;;;;;;;24;28.09668;998.1547;;;;
2019/04/02 01:44:17;;;;;;;5.5;5;;;;;;;24;28.09668;998.1177;;;;
2019/04/02 01:46:47;;;;;;;5;4.5;;;;;;;24;28.10938;998.1273;;;;
2019/04/02 01:49:19;;;;;;;5.9;5.1;;;;;;;23.99;28.0957;998.1153;;;;
2019/04/02 01:51:49;;;;;;;5.5;5;;;;;;;23.99;28.10742;998.0524;;;;
2019/04/02 01:54:19;;;;;;;5.4;4.9;;;;;;;23.98;28.12012;998.0346;;;;
2019/04/02 01:56:50;;;;;;;5.3;4.8;;;;;;;23.98;28.10742;997.9856;;;;
2019/04/02 01:59:22;;;;;;;5.1;4.6;;;;;;;23.98;28.11914;997.913;;;;
2019/04/02 02:01:51;;;;;;;5.3;4.8;;;;;;;23.98;28.11914;997.9678;;;;
2019/04/02 02:04:22;;;;;;;4.7;4.3;;;;;;;23.97;28.11816;997.9323;;;;
2019/04/02 02:06:53;;;;;;;5.2;4.8;;;;;;;23.97;28.11816;997.8873;;;;
2019/04/02 02:09:23;;;;;;;5.2;4.7;;;;;;;23.96;28.13086;997.8577;;;;
2019/04/02 02:11:55;;;;;;;5.6;5.1;;;;;;;23.96;28.13086;997.8477;;;;
2019/04/02 02:14:25;;;;;;;5.7;5.2;;;;;;;23.96;28.12988;997.7576;;;;
2019/04/02 02:16:55;;;;;;;5.3;4.8;;;;;;;23.95;28.14063;997.7632;;;;
2019/04/02 02:19:26;;;;;;;5.8;5.3;;;;;;;23.95;28.14063;997.8139;;;;
2019/04/02 02:21:56;;;;;;;5.3;4.8;;;;;;;23.95;28.14063;997.765;;;;
2019/04/02 02:24:27;;;;;;;6.1;5.5;;;;;;;23.94;28.15234;997.7706;;;;
2019/04/02 02:26:59;;;;;;;6.1;5.5;;;;;;;23.94;28.14063;997.802;;;;
2019/04/02 02:29:28;;;;;;;5.5;5;;;;;;;23.93;28.16309;997.774;;;;
2019/04/02 02:31:59;;;;;;;5.8;5.2;;;;;;;23.92;28.16309;997.7111;;;;
2019/04/02 02:34:31;;;;;;;5.6;5.1;;;;;;;23.92;28.16309;997.6838;;;;
2019/04/02 02:37:01;;;;;;;6;5.4;;;;;;;23.92;28.16211;997.6796;;;;
2019/04/02 02:39:31;;;;;;;5.5;5;;;;;;;23.92;28.16211;997.6484;;;;
2019/04/02 02:42:04;;;;;;;6;5.4;;;;;;;23.92;28.1748;997.6895;;;;
2019/04/02 02:44:37;;;;;;;5.4;5;;;;;;;23.91;28.17383;997.6595;;;;
2019/04/02 02:47:05;;;;;;;6.2;5.6;;;;;;;23.91;28.1748;997.5951;;;;
2019/04/02 02:49:36;;;;;;;6.1;5.6;;;;;;;23.91;28.1748;997.5951;;;;
2019/04/02 02:52:07;;;;;;;5.3;4.8;;;;;;;23.9;28.16211;997.5735;;;;
2019/04/02 02:54:37;;;;;;;5.4;4.9;;;;;;;23.9;28.16211;997.5558;;;;
2019/04/02 02:57:09;;;;;;;5.9;5.4;;;;;;;23.89;28.18457;997.5809;;;;
2019/04/02 02:59:38;;;;;;;5.8;5.2;;;;;;;23.87;28.19531;997.5526;;;;
2019/04/02 03:02:09;;;;;;;5.7;5.2;;;;;;;23.88;28.19531;997.584;;;;
2019/04/02 03:04:40;;;;;;;6.1;5.5;;;;;;;23.88;28.19531;997.5156;;;;
2019/04/02 03:07:11;;;;;;;5.9;5.4;;;;;;;23.87;28.19531;997.5625;;;;
2019/04/02 03:09:41;;;;;;;5.7;5.1;;;;;;;23.88;28.18359;997.4922;;;;
2019/04/02 03:12:12;;;;;;;5.9;5.4;;;;;;;23.87;28.19531;997.5115;;;;
2019/04/02 03:14:42;;;;;;;5.7;5.2;;;;;;;23.87;28.20703;997.4763;;;;
2019/04/02 03:17:13;;;;;;;5.6;5.1;;;;;;;23.88;28.19531;997.5019;;;;
2019/04/02 03:19:43;;;;;;;5.5;5;;;;;;;23.88;28.19531;997.4881;;;;
2019/04/02 03:22:15;;;;;;;5.7;5.2;;;;;;;23.87;28.19531;997.4214;;;;
2019/04/02 03:24:45;;;;;;;5.8;5.3;;;;;;;23.87;28.19434;997.4722;;;;
2019/04/02 03:27:16;;;;;;;5.5;5;;;;;;;23.86;28.20605;997.4503;;;;
2019/04/02 03:29:46;;;;;;;6;5.4;;;;;;;23.86;28.19434;997.4465;;;;
2019/04/02 03:32:17;;;;;;;5.7;5.2;;;;;;;23.85;28.22949;997.4169;;;;
2019/04/02 03:34:48;;;;;;;5.9;5.4;;;;;;;23.85;28.20605;997.3973;;;;
2019/04/02 03:37:19;;;;;;;6;5.5;;;;;;;23.85;28.20605;997.3483;;;;
2019/04/02 03:39:48;;;;;;;5.9;5.4;;;;;;;23.85;28.20508;997.3166;;;;
2019/04/02 03:42:20;;;;;;;5.7;5.2;;;;;;;23.85;28.20605;997.3483;;;;
2019/04/02 03:44:52;;;;;;;6.3;5.7;;;;;;;23.84;28.22852;997.318;;;;
2019/04/02 03:47:20;;;;;;;6;5.5;;;;;;;23.83;28.24023;997.3157;;;;
2019/04/02 03:49:51;;;;;;;6.2;5.6;;;;;;;23.84;28.20508;997.1635;;;;
2019/04/02 03:52:22;;;;;;;6;5.4;;;;;;;23.84;28.2168;997.1909;;;;
2019/04/02 03:54:52;;;;;;;5.9;5.4;;;;;;;23.83;28.22754;997.216;;;;
2019/04/02 03:57:23;;;;;;;5.9;5.4;;;;;;;23.84;28.2168;997.2321;;;;
2019/04/02 03:59:54;;;;;;;6;5.4;;;;;;;23.83;28.25195;997.1475;;;;
2019/04/02 04:02:37;;;;;;;5.7;5.2;;;;;;;23.81;28.25;997.0726;;;;
2019/04/02 04:05:10;;;;;;;5.9;5.4;;;;;;;23.81;28.25;997.0781;;;;
2019/04/02 04:07:40;;;;;;;5.7;5.2;;;;;;;23.81;28.25;997.1274;;;;
2019/04/02 04:10:11;;;;;;;5.6;5.2;;;;;;;23.81;28.26172;997.0589;;;;
2019/04/02 04:12:43;;;;;;;6.1;5.5;;;;;;;23.81;28.25;997.1193;;;;
2019/04/02 04:15:12;;;;;;;5.9;5.3;;;;;;;23.8;28.26172;997.0348;;;;
2019/04/02 04:17:43;;;;;;;6.2;5.7;;;;;;;23.82;28.23926;997.149;;;;
2019/04/02 04:20:13;;;;;;;6.1;5.5;;;;;;;23.81;28.23828;997.137;;;;
2019/04/02 04:22:44;;;;;;;6.1;5.6;;;;;;;23.81;28.25;997.1508;;;;
2019/04/02 04:25:15;;;;;;;5.7;5.2;;;;;;;23.81;28.25;997.1057;;;;
2019/04/02 04:27:46;;;;;;;5.8;5.3;;;;;;;23.8;28.26172;997.0566;;;;
2019/04/02 04:30:16;;;;;;;5.7;5.2;;;;;;;23.8;28.26172;997.1074;;;;
2019/04/02 04:32:48;;;;;;;5.8;5.3;;;;;;;23.8;28.28516;997.1443;;;;
2019/04/02 04:35:19;;;;;;;5.7;5.2;;;;;;;23.8;28.30859;997.1541;;;;
2019/04/02 04:37:49;;;;;;;5.8;5.3;;;;;;;23.8;28.29785;997.1758;;;;
2019/04/02 04:40:19;;;;;;;5.8;5.3;;;;;;;23.8;28.33301;997.0854;;;;
2019/04/02 04:42:50;;;;;;;5.9;5.4;;;;;;;23.79;28.34375;997.0832;;;;
2019/04/02 04:45:21;;;;;;;5.5;5;;;;;;;23.78;28.36719;996.9969;;;;
2019/04/02 04:47:55;;;;;;;5.8;5.2;;;;;;;23.79;28.36719;997.0187;;;;
2019/04/02 04:50:26;;;;;;;6.1;5.5;;;;;;;23.79;28.3916;997.0598;;;;
2019/04/02 04:52:57;;;;;;;5.9;5.4;;;;;;;23.79;28.36719;997.0129;;;;
2019/04/02 04:55:27;;;;;;;5.8;5.3;;;;;;;23.79;28.39063;997.0558;;;;
2019/04/02 04:57:58;;;;;;;6;5.5;;;;;;;23.78;28.39063;997.0928;;;;
2019/04/02 05:00:29;;;;;;;5.9;5.3;;;;;;;23.78;28.39063;997.0753;;;;
2019/04/02 05:02:59;;;;;;;5.9;5.4;;;;;;;23.78;28.41406;997.1261;;;;
2019/04/02 05:05:30;;;;;;;5.4;5;;;;;;;23.79;28.40234;997.0695;;;;
2019/04/02 05:08:00;;;;;;;5.9;5.4;;;;;;;23.79;28.3916;997.1225;;;;
2019/04/02 05:10:31;;;;;;;5.5;5;;;;;;;23.8;28.38086;997.08;;;;
2019/04/02 05:13:01;;;;;;;5.7;5.2;;;;;;;23.8;28.35645;997.0937;;;;
2019/04/02 05:15:32;;;;;;;5.6;5.1;;;;;;;23.81;28.36816;997.0604;;;;
2019/04/02 05:18:03;;;;;;;5.7;5.2;;;;;;;23.81;28.34473;997.074;;;;
2019/04/02 05:20:34;;;;;;;5.7;5.2;;;;;;;23.82;28.33398;997.0708;;;;
2019/04/02 05:23:05;;;;;;;5.6;5.1;;;;;;;23.84;28.31152;997.1262;;;;
2019/04/02 05:25:35;;;;;;;5.8;5.3;;;;;;;23.84;28.28711;997.1262;;;;
2019/04/02 05:28:05;;;;;;;5.9;5.4;;;;;;;23.84;28.28711;997.1125;;;;
2019/04/02 05:30:36;;;;;;;5.6;5.2;;;;;;;23.85;28.28906;997.1055;;;;
2019/04/02 05:33:07;;;;;;;6.1;5.6;;;;;;;23.86;28.26563;997.1273;;;;
2019/04/02 05:35:37;;;;;;;5.6;5.1;;;;;;;23.9;28.74219;997.0625;;;;
2019/04/02 05:38:08;;;;;;;5.7;5.2;;;;;;;23.92;28.31641;997.0219;;;;
2019/04/02 05:40:38;;;;;;;5.4;4.9;;;;;;;23.91;28.36328;997.0276;;;;
2019/04/02 05:43:10;;;;;;;5.6;5.1;;;;;;;23.93;28.37598;997.0615;;;;
2019/04/02 05:45:40;;;;;;;5.9;5.4;;;;;;;23.94;28.54297;997.0442;;;;
2019/04/02 05:48:10;;;;;;;5.7;5.2;;;;;;;23.95;28.54395;997.1465;;;;
2019/04/02 05:50:41;;;;;;;6.1;5.5;;;;;;;23.97;28.37891;997.0748;;;;
2019/04/02 05:53:12;;;;;;;5.7;5.2;;;;;;;23.99;28.36816;997.0656;;;;
2019/04/02 05:55:42;;;;;;;5.4;4.9;;;;;;;24;28.36914;997.0034;;;;
2019/04/02 05:58:13;;;;;;;5.8;5.3;;;;;;;24.02;28.41797;997.067;;;;
2019/04/02 06:00:44;;;;;;;6.2;5.6;;;;;;;24.04;28.4541;997.0756;;;;
2019/04/02 06:03:15;;;;;;;5.8;5.2;;;;;;;24.06;28.39746;996.998;;;;
2019/04/02 06:05:45;;;;;;;5.9;5.3;;;;;;;24.08;28.37402;996.9947;;;;
2019/04/02 06:08:16;;;;;;;5.4;4.9;;;;;;;24.1;28.31543;996.9581;;;;
2019/04/02 06:10:46;;;;;;;5.4;4.9;;;;;;;24.13;28.24707;996.928;;;;
2019/04/02 06:13:17;;;;;;;5.2;4.8;;;;;;;24.18;28.19141;996.926;;;;
2019/04/02 06:15:48;;;;;;;5.7;5;;;;;;;24.25;28.08887;996.9559;;;;
2019/04/02 06:18:18;;;;;;;6.4;5.5;;;;;;;24.31;28.04492;996.9285;;;;
2019/04/02 06:20:49;;;;;;;6.2;5.2;;;;;;;24.38;27.9668;996.9369;;;;
2019/04/02 06:23:19;;;;;;;5.9;5.4;;;;;;;24.44;27.89941;996.9369;;;;
2019/04/02 06:25:50;;;;;;;5.7;5.2;;;;;;;24.48;27.84277;996.8444;;;;
2019/04/02 06:28:21;;;;;;;6.9;5.7;;;;;;;24.54;27.75098;996.905;;;;
2019/04/02 06:30:52;;;;;;;7.7;6.2;;;;;;;24.57;27.83691;996.8558;;;;
2019/04/02 06:33:22;;;;;;;6.3;5.7;;;;;;;24.6;27.79102;996.8273;;;;
2019/04/02 06:35:53;;;;;;;6.7;6.1;;;;;;;24.62;27.75684;996.8318;;;;
2019/04/02 06:38:24;;;;;;;7.5;6.1;;;;;;;24.68;27.63086;996.7675;;;;
2019/04/02 06:40:54;;;;;;;6.7;6.1;;;;;;;24.79;27.58984;996.8653;;;;
2019/04/02 06:43:26;;;;;;;7.5;6.8;;;;;;;24.85;27.55762;996.8611;;;;
2019/04/02 06:45:55;;;;;;;7.4;6.7;;;;;;;24.9;27.40625;996.8219;;;;
2019/04/02 06:49:08;;;;;;;7.9;7.1;;;;;;;24.94;27.50391;996.7581;;;;
2019/04/02 06:50:56;;;;;;;7.7;6.9;;;;;;;24.96;27.45801;996.7492;;;;
2019/04/02 06:53:27;;;;;;;7.6;6.5;;;;;;;24.98;27.45801;996.7868;;;;
2019/04/02 06:55:57;;;;;;;7.4;6.7;;;;;;;24.98;27.50684;996.7304;;;;
2019/04/02 06:58:28;;;;;;;8.2;6.9;;;;;;;25.04;27.40332;996.7712;;;;
2019/04/02 07:00:58;;;;;;;7.2;6.5;;;;;;;25.12;27.21777;996.7228;;;;
2019/04/02 07:03:29;;;;;;;8.4;7.3;;;;;;;25.14;27.29004;996.7587;;;;
2019/04/02 07:06:00;;;;;;;7.7;6.9;;;;;;;25.16;27.30371;996.744;;;;
2019/04/02 07:08:30;;;;;;;7.6;6.5;;;;;;;25.23;27.18945;996.807;;;;
2019/04/02 07:11:01;;;;;;;8.2;6.8;;;;;;;25.27;27.13281;996.7418;;;;
2019/04/02 07:13:32;;;;;;;7.8;7;;;;;;;25.35;27.06641;996.7519;;;;
2019/04/02 07:16:02;;;;;;;8.5;7.7;;;;;;;25.41;26.99805;996.7519;;;;
2019/04/02 07:18:33;;;;;;;8.6;7.7;;;;;;;25.44;27;996.6761;;;;
2019/04/02 07:21:03;;;;;;;9.2;7.5;;;;;;;25.52;26.94629;996.7533;;;;
2019/04/02 07:23:34;;;;;;;7.9;7.1;;;;;;;25.57;26.75879;996.6467;;;;
2019/04/02 07:26:05;;;;;;;8.6;7.7;;;;;;;25.62;26.75;996.6248;;;;
2019/04/02 07:28:36;;;;;;;8.4;7.2;;;;;;;25.7;26.74219;996.635;;;;
2019/04/02 07:31:07;;;;;;;8;7.2;;;;;;;25.77;26.5332;996.5291;;;;
2019/04/02 07:33:37;;;;;;;8.5;6.8;;;;;;;25.89;26.49219;996.525;;;;
2019/04/02 07:36:09;;;;;;;7.8;6.8;;;;;;;25.96;26.38965;996.6192;;;;
2019/04/02 07:38:41;;;;;;;8.7;7.7;;;;;;;26.06;26.59766;996.5454;;;;
2019/04/02 07:41:14;;;;;;;7.1;6.4;;;;;;;26.21;26.38086;996.5181;;;;
2019/04/02 07:43:46;;;;;;;8.5;6.9;;;;;;;26.59;25.92676;996.4892;;;;
2019/04/02 07:46:20;;;;;;;8.5;7;;;;;;;26.9;25.56348;996.5361;;;;
2019/04/02 07:48:50;;;;;;;8.8;7.5;;;;;;;27.07;25.27539;996.4478;;;;
2019/04/02 07:51:25;;;;;;;14;11.9;;;;;;;26.92;27.42285;996.4303;;;;
2019/04/02 07:53:54;;;;;;;11.3;10.1;;;;;;;27.04;27.07324;996.4429;;;;
2019/04/02 07:56:28;;;;;;;12.6;11.3;;;;;;;26.93;27.45996;996.3345;;;;
2019/04/02 07:58:58;;;;;;;17;13.7;;;;;;;27.01;27.38086;996.4171;;;;
2019/04/02 08:01:24;;;;;;;16.8;13.4;;;;;;;27.19;27.1416;996.3936;;;;
2019/04/02 08:03:59;;;;;;;14.6;13.1;;;;;;;27.07;27.74219;996.4065;;;;
2019/04/02 08:06:34;;;;;;;14.7;11.3;;;;;;;27.76;26.18555;996.379;;;;
2019/04/02 08:09:02;;;;;;;17.1;15.2;;;;;;;27.27;27.73047;996.323;;;;
2019/04/02 08:11:35;;;;;;;15.1;12.7;;;;;;;28.3;26.28906;996.3758;;;;
2019/04/02 08:14:05;;;;;;;12.7;11.3;;;;;;;28.5;24.36426;996.3085;;;;
2019/04/02 08:16:33;;;;;;;13.4;11.3;;;;;;;28.77;23.87598;996.3484;;;;
2019/04/02 08:19:04;;;;;;;12.5;11.2;;;;;;;29.27;23.42285;996.3406;;;;
2019/04/02 08:21:31;;;;;;;16.9;14.8;;;;;;;28.72;24.59082;996.316;;;;
2019/04/02 08:24:03;;;;;;;14;11.2;;;;;;;29.25;23.43457;996.234;;;;
2019/04/02 08:26:35;;;;;;;11.9;10.3;;;;;;;29.34;23.1875;996.2311;;;;
2019/04/02 08:29:00;;;;;;;11.1;10;;;;;;;29.55;22.88672;996.1511;;;;
2019/04/02 08:31:26;;;;;;;10.4;9;;;;;;;29.79;22.61133;996.1641;;;;
2019/04/02 08:33:55;;;;;;;11.3;8.5;;;;;;;30.06;22.40918;996.1459;;;;
2019/04/02 08:36:21;;;;;;;9.2;8.2;;;;;;;30.35;21.70313;996.1287;;;;
2019/04/02 08:38:59;;;;;;;9.2;8.3;;;;;;;30.85;20.93359;996.0681;;;;
2019/04/02 08:41:24;;;;;;;8.3;7.6;;;;;;;30.82;21.34082;996.0144;;;;
2019/04/02 08:43:58;;;;;;;8.2;7.4;;;;;;;30.83;21.10059;995.9691;;;;
2019/04/02 08:46:22;;;;;;;9.6;8.4;;;;;;;30.95;20.98633;996.041;;;;
2019/04/02 08:48:55;;;;;;;10;9;;;;;;;30.27;21.60254;996.0253;;;;
2019/04/02 08:51:25;;;;;;;10.7;9.1;;;;;;;30.33;21.82129;996.0179;;;;
2019/04/02 08:53:53;;;;;;;9.6;8.3;;;;;;;30.71;21.34766;995.9997;;;;
2019/04/02 08:56:21;;;;;;;8.8;7.9;;;;;;;30.36;21.60742;996.0281;;;;
2019/04/02 08:58:51;;;;;;;9;8.1;;;;;;;28.74;23.61133;995.9872;;;;
2019/04/02 09:01:22;;;;;;;9.6;8.6;;;;;;;27.97;24.69336;995.9753;;;;
2019/04/02 09:03:57;;;;;;;10.5;8.8;;;;;;;27.58;25.33984;995.9397;;;;
2019/04/02 09:06:24;;;;;;;11.5;8.8;;;;;;;27.64;25.4502;995.8345;;;;
2019/04/02 09:09:04;;;;;;;10.3;9.3;;;;;;;27.44;25.48633;995.856;;;;
2019/04/02 09:11:38;;;;;;;11.7;10.5;;;;;;;27.3;25.53906;995.8293;;;;
2019/04/02 09:14:02;;;;;;;12.8;11.5;;;;;;;27.16;25.81641;995.7811;;;;
2019/04/02 09:16:32;;;;;;;12.3;10.6;;;;;;;27.25;26.15527;995.7162;;;;
2019/04/02 09:18:57;;;;;;;11.6;10.3;;;;;;;27.27;25.9668;995.7305;;;;
2019/04/02 09:21:30;;;;;;;11;9.3;;;;;;;27.19;26.02148;995.6303;;;;
2019/04/02 09:23:58;;;;;;;11.5;9.7;;;;;;;27.11;25.99316;995.6028;;;;
2019/04/02 09:26:29;;;;;;;11.8;10.4;;;;;;;26.96;26.38867;995.5167;;;;
2019/04/02 09:29:00;;;;;;;11.8;9;;;;;;;27.03;26.5957;995.4063;;;;
2019/04/02 09:31:30;;;;;;;9.7;8.7;;;;;;;27.08;26.30078;995.4092;;;;
2019/04/02 09:34:05;;;;;;;10.2;8.3;;;;;;;26.97;26.36523;995.3949;;;;
2019/04/02 09:36:35;;;;;;;9.6;8;;;;;;;26.9;26.48145;995.3638;;;;
2019/04/02 09:39:06;;;;;;;11.3;8;;;;;;;26.96;26.65137;995.2531;;;;
2019/04/02 09:41:36;;;;;;;11;8.4;;;;;;;26.88;26.6582;995.2688;;;;
2019/04/02 09:44:04;;;;;;;10.8;8.2;;;;;;;26.78;26.73535;995.2019;;;;
2019/04/02 09:46:33;;;;;;;10.4;7.9;;;;;;;26.7;26.68359;995.1467;;;;
2019/04/02 09:48:57;;;;;;;8.8;7.4;;;;;;;26.66;26.82324;995.2028;;;;
2019/04/02 09:51:25;;;;;;;8.6;7.7;;;;;;;26.6;26.86816;995.1467;;;;
2019/04/02 09:53:53;;;;;;;9.7;8.8;;;;;;;26.49;26.88574;995.1044;;;;
2019/04/02 09:56:22;;;;;;;10.6;8.3;;;;;;;26.53;27.03027;995.0997;;;;
2019/04/02 09:58:50;;;;;;;8.8;8;;;;;;;26.48;27.03906;995.0942;;;;
2019/04/02 10:01:21;;;;;;;9.6;8.3;;;;;;;26.41;27.24902;995.0787;;;;
2019/04/02 10:03:53;;;;;;;9.2;8.1;;;;;;;26.45;27.2041;995.068;;;;
2019/04/02 10:06:21;;;;;;;11;9;;;;;;;26.44;27.26367;995.0245;;;;
2019/04/02 10:08:58;;;;;;;11.5;8.8;;;;;;;26.37;27.4248;994.9815;;;;
2019/04/02 10:11:27;;;;;;;12.4;9;;;;;;;26.4;27.5459;994.9236;;;;
2019/04/02 10:13:54;;;;;;;12.7;8.9;;;;;;;26.41;27.84375;994.9136;;;;
2019/04/02 10:16:34;;;;;;;10.4;8.8;;;;;;;26.4;27.60547;994.9664;;;;
2019/04/02 10:18:59;;;;;;;10.6;9.2;;;;;;;26.41;27.62988;994.8998;;;;
2019/04/02 10:21:33;;;;;;;11.4;8.7;;;;;;;26.43;27.64355;994.875;;;;
2019/04/02 10:24:04;;;;;;;11.4;9.1;;;;;;;26.42;27.92773;994.8195;;;;
2019/04/02 10:26:29;;;;;;;9.5;8.5;;;;;;;26.44;28.06055;994.7416;;;;
2019/04/02 10:29:04;;;;;;;12.6;10;;;;;;;26.35;27.86426;994.7611;;;;
2019/04/02 10:31:31;;;;;;;13.6;10.5;;;;;;;26.27;28.07422;994.7022;;;;
2019/04/02 10:34:05;;;;;;;13.5;9.8;;;;;;;26.26;27.94141;994.7057;;;;
2019/04/02 10:36:40;;;;;;;13;10;;;;;;;26.28;28.03809;994.6278;;;;
2019/04/02 10:39:08;;;;;;;11.7;9.4;;;;;;;26.3;28.37305;994.5987;;;;
2019/04/02 10:41:36;;;;;;;12.8;8.7;;;;;;;26.29;28.18164;994.5199;;;;
2019/04/02 10:44:07;;;;;;;10.6;8.4;;;;;;;26.32;28.05273;994.5854;;;;
2019/04/02 10:46:37;;;;;;;10.2;8.1;;;;;;;26.23;28.16602;994.5203;;;;
2019/04/02 10:49:15;;;;;;;11.2;9.2;;;;;;;26.21;28.11719;994.5808;;;;
2019/04/02 10:51:45;;;;;;;12.8;10.5;;;;;;;26.15;28.55371;994.4793;;;;
2019/04/02 10:54:14;;;;;;;11.6;10.3;;;;;;;26.11;28.50391;994.3781;;;;
2019/04/02 10:56:46;;;;;;;14.8;10.3;;;;;;;26.14;28.89746;994.3218;;;;
2019/04/02 10:59:19;;;;;;;14.2;10.2;;;;;;;26.12;28.83691;994.2762;;;;
2019/04/02 11:01:45;;;;;;;13;10;;;;;;;26.08;28.67969;994.2534;;;;
2019/04/02 11:04:17;;;;;;;11.5;10.3;;;;;;;26.08;28.82324;994.2615;;;;
2019/04/02 11:06:51;;;;;;;12.3;10.3;;;;;;;26.09;28.69238;994.1735;;;;
2019/04/02 11:09:17;;;;;;;13.4;10;;;;;;;26.07;28.63184;994.155;;;;
2019/04/02 11:11:48;;;;;;;11.4;9.5;;;;;;;26.09;28.75195;994.0947;;;;
2019/04/02 11:14:21;;;;;;;11.1;9.9;;;;;;;26.08;28.58496;994.0884;;;;
2019/04/02 11:16:49;;;;;;;12.8;10.1;;;;;;;26.06;28.20313;994.0704;;;;
2019/04/02 11:19:23;;;;;;;14.9;9.9;;;;;;;25.99;28.10352;993.9687;;;;
2019/04/02 11:21:53;;;;;;;12.3;9.9;;;;;;;25.96;28.25586;993.9328;;;;
2019/04/02 11:24:23;;;;;;;16.5;10.8;;;;;;;25.96;28.03027;993.9069;;;;
2019/04/02 11:26:54;;;;;;;16;9.9;;;;;;;25.97;28.06641;993.8031;;;;
2019/04/02 11:29:24;;;;;;;11.4;9.3;;;;;;;25.95;27.66113;993.8359;;;;
2019/04/02 11:31:55;;;;;;;14.3;9;;;;;;;25.94;27.20801;993.8103;;;;
2019/04/02 11:34:25;;;;;;;11.1;8.9;;;;;;;25.93;26.59082;993.7198;;;;
2019/04/02 11:36:58;;;;;;;10.4;8.2;;;;;;;25.93;26.70898;993.6332;;;;
2019/04/02 11:39:27;;;;;;;10.2;8;;;;;;;25.94;26.86426;993.6632;;;;
2019/04/02 11:42:03;;;;;;;11.2;7.7;;;;;;;25.92;26.88672;993.5683;;;;
2019/04/02 11:44:28;;;;;;;10.7;7.9;;;;;;;25.94;27.12598;993.567;;;;
2019/04/02 11:46:59;;;;;;;10.7;7.3;;;;;;;25.97;26.90234;993.4537;;;;
2019/04/02 11:49:30;;;;;;;9.4;7.5;;;;;;;25.94;26.06738;993.5807;;;;
2019/04/02 11:52:03;;;;;;;12;7.1;;;;;;;25.91;26.44629;993.4267;;;;
2019/04/02 11:54:36;;;;;;;9.9;7.4;;;;;;;25.89;25.55273;993.4478;;;;
2019/04/02 11:57:02;;;;;;;9.7;7.1;;;;;;;25.9;25.3877;993.4383;;;;
2019/04/02 11:59:36;;;;;;;13.4;7.2;;;;;;;25.94;24.33203;993.4352;;;;
2019/04/02 12:02:07;;;;;;;10.8;6.9;;;;;;;25.92;24.90137;993.3758;;;;
2019/04/02 12:04:35;;;;;;;12.3;7;;;;;;;25.9;23.94922;993.397;;;;
2019/04/02 12:07:08;;;;;;;8.4;7.1;;;;;;;25.88;23.38965;993.3022;;;;
2019/04/02 12:09:36;;;;;;;9.2;6.9;;;;;;;25.88;23.37793;993.4081;;;;
2019/04/02 12:12:07;;;;;;;9.2;7;;;;;;;25.85;23.23438;993.3091;;;;
2019/04/02 12:14:40;;;;;;;9.2;7.5;;;;;;;25.78;22.74316;993.2484;;;;
2019/04/02 12:17:08;;;;;;;9.5;6.5;;;;;;;25.77;22.88574;993.3093;;;;
2019/04/02 12:19:39;;;;;;;11.3;7.5;;;;;;;25.78;21.81543;993.2347;;;;
2019/04/02 12:22:10;;;;;;;11;7.5;;;;;;;25.79;21.75684;993.1819;;;;
2019/04/02 12:24:42;;;;;;;12;7.8;;;;;;;25.82;21.99609;993.1512;;;;
2019/04/02 12:27:21;;;;;;;10.1;7.6;;;;;;;25.83;21.7832;993.0299;;;;
2019/04/02 12:29:51;;;;;;;9.7;7.2;;;;;;;25.91;21.88184;993.0653;;;;
2019/04/02 12:32:21;;;;;;;12.4;7.4;;;;;;;25.89;21.8457;993.0707;;;;
2019/04/02 12:34:51;;;;;;;11.3;7.5;;;;;;;25.91;21.77441;993.03;;;;
2019/04/02 12:37:23;;;;;;;10.5;7.5;;;;;;;25.95;21.75293;992.9642;;;;
2019/04/02 12:39:56;;;;;;;9.2;7.2;;;;;;;25.96;21.76563;992.9252;;;;
2019/04/02 12:42:27;;;;;;;9.2;6.6;;;;;;;26.03;22.625;992.909;;;;
2019/04/02 12:44:57;;;;;;;9.4;6.5;;;;;;;26.02;22.375;992.8656;;;;
2019/04/02 12:47:36;;;;;;;9.1;7.1;;;;;;;26.01;22.24414;992.8025;;;;
2019/04/02 12:50:00;;;;;;;9.4;6.5;;;;;;;25.98;22.68164;992.8608;;;;
2019/04/02 12:52:27;;;;;;;10.4;6.8;;;;;;;26.01;22.87402;992.8025;;;;
2019/04/02 12:55:00;;;;;;;9.7;7;;;;;;;26.06;22.02051;992.7642;;;;
2019/04/02 12:57:23;;;;;;;9.2;7.1;;;;;;;26.11;22.74805;992.7477;;;;
2019/04/02 12:59:53;;;;;;;9.8;6.7;;;;;;;26.1;23.08008;992.6453;;;;
2019/04/02 13:02:17;;;;;;;12;6.5;;;;;;;26.12;22.92676;992.6398;;;;
2019/04/02 13:04:47;;;;;;;11.7;6.8;;;;;;;26.1;22.72363;992.6434;;;;
2019/04/02 13:07:19;;;;;;;9.7;6.7;;;;;;;26.12;22.28418;992.5298;;;;
2019/04/02 13:09:54;;;;;;;9.2;6.8;;;;;;;26.05;22.85156;992.4911;;;;
2019/04/02 13:12:26;;;;;;;10.1;7.3;;;;;;;26.06;22.86426;992.4576;;;;
2019/04/02 13:14:57;;;;;;;11.8;6.7;;;;;;;26.05;22.72168;992.3439;;;;
2019/04/02 13:17:26;;;;;;;9.4;7;;;;;;;26.01;22.54102;992.2898;;;;
2019/04/02 13:19:52;;;;;;;9.9;7.2;;;;;;;25.96;21.87305;992.3478;;;;
2019/04/02 13:22:31;;;;;;;10;7.1;;;;;;;25.96;22.26465;992.2847;;;;
2019/04/02 13:24:58;;;;;;;9.6;6.7;;;;;;;25.99;23.14551;992.2364;;;;
2019/04/02 13:27:27;;;;;;;9.5;6;;;;;;;26.08;22.56836;992.2148;;;;
2019/04/02 13:29:57;;;;;;;9.6;6.4;;;;;;;26.15;22.40527;992.1788;;;;
2019/04/02 13:32:30;;;;;;;8.4;6.3;;;;;;;26.18;22.51367;992.1264;;;;
2019/04/02 13:34:55;;;;;;;7.8;5.7;;;;;;;26.21;22.66992;992.0818;;;;
2019/04/02 13:37:20;;;;;;;9.1;6.4;;;;;;;26.23;22.64746;992.0311;;;;
2019/04/02 13:39:54;;;;;;;9.9;6.6;;;;;;;26.21;22.75293;991.9678;;;;
2019/04/02 13:42:26;;;;;;;9.2;6.4;;;;;;;26.18;23.37012;991.8591;;;;
2019/04/02 13:45:06;;;;;;;10.2;6.4;;;;;;;26.15;23.54688;991.7622;;;;
2019/04/02 13:47:34;;;;;;;9.5;6.7;;;;;;;26.12;23.0332;991.7283;;;;
2019/04/02 13:50:03;;;;;;;9.7;6.8;;;;;;;26.07;23.62598;991.7845;;;;
2019/04/02 13:52:34;;;;;;;10.4;6.5;;;;;;;26.06;23.92285;991.619;;;;
2019/04/02 13:55:08;;;;;;;10.7;6.8;;;;;;;26.05;23.93359;991.6209;;;;
2019/04/02 13:57:36;;;;;;;8;6.3;;;;;;;26.06;23.66113;991.682;;;;
2019/04/02 14:00:05;;;;;;;9;6.6;;;;;;;26.04;23.44629;991.6503;;;;
2019/04/02 14:02:33;;;;;;;8.8;6.6;;;;;;;26;23.43262;991.5355;;;;
2019/04/02 14:05:04;;;;;;;11;6.4;;;;;;;26.03;23.95703;991.438;;;;
2019/04/02 14:07:33;;;;;;;7.5;6.1;;;;;;;26.04;23.90918;991.5047;;;;
2019/04/02 14:10:07;;;;;;;8.4;5.7;;;;;;;26;24.09766;991.4119;;;;
2019/04/02 14:12:36;;;;;;;10;6.1;;;;;;;25.99;23.93066;991.3918;;;;
2019/04/02 14:15:05;;;;;;;9.4;5.7;;;;;;;25.99;24.07422;991.3822;;;;
2019/04/02 14:17:33;;;;;;;8.6;6;;;;;;;26.01;24.27637;991.3334;;;;
2019/04/02 14:19:56;;;;;;;8.4;5.5;;;;;;;26;24.57324;991.3431;;;;
2019/04/02 14:22:24;;;;;;;7.5;5.5;;;;;;;26.03;24.72949;991.2964;;;;
2019/04/02 14:24:54;;;;;;;8.4;5.4;;;;;;;26.05;24.79004;991.2125;;;;
2019/04/02 14:27:28;;;;;;;8.9;5.6;;;;;;;26;24.9541;991.1781;;;;
2019/04/02 14:29:55;;;;;;;9.4;5.7;;;;;;;26;24.95313;991.0326;;;;
2019/04/02 14:32:30;;;;;;;7.5;5.6;;;;;;;25.96;24.98633;991.1066;;;;
2019/04/02 14:34:57;;;;;;;9.4;5.4;;;;;;;25.96;25.08203;991.1163;;;;
2019/04/02 14:37:32;;;;;;;8.2;5.2;;;;;;;26;25.23926;991.1113;;;;
2019/04/02 14:40:00;;;;;;;9;5.3;;;;;;;26.01;25.41797;991.0309;;;;
2019/04/02 14:42:32;;;;;;;6.5;5;;;;;;;26.08;25.66016;991.1032;;;;
2019/04/02 14:45:05;;;;;;;5.9;4.9;;;;;;;26.1;25.625;991.0856;;;;